Flight Track Log - Related Links

Times and Time Zones

All times are in EDT time to prevent confusion due to time zone crossing. See the JBU336 flight status page for this flight to view local times or setup timezone preferences in your user account.


Time Position Orientation Groundspeed Altitude Reporting Facility
EDT Latitude Longitude Course Direction KTS MPH feet Rate Location/Type
Sat 03:42:00 AM 19.7405 -70.5667 North  Level FlightAware Approximate
Sat 03:42:13 AM 19.4472 -70.4644 21° North 290 334 7,800  Level Miami Center
Sat 03:43:00 AM 19.8442 -70.5201 16° North  Level FlightAware Approximate
Sat 03:43:14 AM 19.5256 -70.4528 North 284 327 10,800  Level Miami Center
Sat 03:44:00 AM 19.9543 -70.4871 16° North  Level FlightAware Approximate
Sat 03:44:14 AM 19.6100 -70.4414 North 293 337 13,400  Level Miami Center
Sat 03:45:00 AM 20.0615 -70.4446 21° North  Level FlightAware Approximate
Sat 03:45:13 AM 19.6956 -70.4286 North 302 348 16,100  Level Miami Center
Sat 03:46:00 AM 20.1683 -70.4009 21° North  Level FlightAware Approximate
Sat 03:46:15 AM 19.7803 -70.4183 North 302 348 18,300  Level Miami Center
Sat 03:47:00 AM 20.2781 -70.3560 21° North  Level FlightAware Approximate
Sat 03:47:12 AM 19.8722 -70.4067 North 314 361 19,400  Level Miami Center
Sat 03:48:13 AM 19.9817 -70.3911 North 362 417 20,200 787 Climbing Miami Center
Sat 03:49:14 AM 20.0978 -70.3736 North 394 453 21,000 1,082 Climbing Miami Center
Sat 03:50:15 AM 20.2203 -70.3656 North 420 483 22,400 1,400 Climbing Miami Center
Sat 03:51:14 AM 20.3450 -70.3589 North 438 504 23,800 1,412 Climbing Miami Center
Sat 03:52:14 AM 20.4703 -70.3497 North 443 510 25,200 1,230 Climbing Miami Center
Sat 03:53:16 AM 20.5969 -70.3428 North 447 514 26,300 1,041 Climbing Miami Center
Sat 03:54:15 AM 20.7256 -70.3350 North 455 524 27,300 1,059 Climbing Miami Center
Sat 03:55:15 AM 20.8589 -70.3261 North 465 535 28,400 1,000 Climbing Miami Center
Sat 03:56:15 AM 20.9931 -70.3178 North 474 545 29,300 1,041 Climbing Miami Center
Sat 03:57:16 AM 21.1275 -70.3092 North 478 550 30,500 1,240 Climbing Miami Center
Sat 03:58:16 AM 21.2878 -70.2983 North 479 551 31,800 1,100 Climbing Miami Center
Sat 03:59:16 AM 21.4211 -70.2900 North 479 551 32,700 1,091 Climbing Miami Center
Sat 04:00:17 AM 21.5558 -70.2817 North 480 552 34,000 634 Climbing Miami Center
Sat 04:01:19 AM 21.6892 -70.2731 North 480 552 34,000  Level Miami Center
Sat 04:02:18 AM 21.8217 -70.2653 North 480 552 34,000 353 Level Miami Center
Sat 04:03:18 AM 21.9550 -70.2564 North 480 552 34,700 850 Climbing Miami Center
Sat 04:04:18 AM 22.0872 -70.2486 North 480 552 35,700 950 Climbing Miami Center
Sat 04:05:18 AM 22.2189 -70.2397 North 480 552 36,600 780 Climbing Miami Center
Sat 04:06:21 AM 22.3486 -70.2297 North 475 547 37,300 645 Climbing Miami Center
Sat 04:07:19 AM 22.4792 -70.2219 North 472 543 37,900 356 Climbing Miami Center
Sat 04:08:19 AM 22.6103 -70.2128 North 472 543 38,000 50 Climbing Miami Center
Sat 04:09:20 AM 22.7414 -70.2050 North 472 543 38,000  Level Miami Center
Sat 04:10:22 AM 22.8731 -70.1953 North 472 543 38,000  Level Miami Center
Sat 04:11:21 AM 23.0047 -70.1864 North 472 543 38,000  Level Miami Center
Sat 04:12:21 AM 23.1350 -70.1753 North 472 543 38,000  Level Miami Center
Sat 04:13:21 AM 23.2667 -70.1658 North 472 543 38,000  Level Miami Center
Sat 04:14:22 AM 23.3989 -70.1578 North 472 543 38,000  Level Miami Center
Sat 04:15:24 AM 23.5311 -70.1511 North 472 543 38,000  Level Miami Center
Sat 04:16:24 AM 23.6633 -70.1403 North 472 543 38,000  Level Miami Center
Sat 04:17:24 AM 23.7961 -70.1325 North 473 544 38,000  Level Miami Center
Sat 04:18:24 AM 23.9283 -70.1256 North 473 544 38,000  Level Miami Center
Sat 04:19:23 AM 24.0603 -70.1197 North 473 544 38,000  Level Miami Center
Sat 04:20:24 AM 24.1894 -70.1078 North 472 543 38,000  Level Miami Center
Sat 04:21:24 AM 24.3217 -70.0983 North 472 543 38,000  Level Miami Center
Sat 04:22:26 AM 24.4519 -70.0892 North 472 543 38,000  Level Miami Center
Sat 04:23:25 AM 24.5828 -70.0756 North 472 543 38,000  Level Miami Center
Sat 04:24:25 AM 24.7119 -70.0572 North 471 542 38,000  Level Miami Center
Sat 04:25:28 AM 24.8417 -70.0453 North 470 541 38,000  Level Miami Center
Sat 04:27:23 AM 25.0000 -70.0500 348° North 461 531 38,000  Level New York Oceanic (ODAPS)
Sat 05:05:13 AM 28.9000 -70.9833 348° North 445 512 38,000 12 Level New York Oceanic (ODAPS)
Sat 05:53:48 AM 35.6939 -72.3844 North 460 529 39,000 20 Climbing New York Center
Sat 05:54:00 AM 35.6778 -72.3991 North  Level FlightAware Approximate
Sat 05:54:46 AM 35.8128 -72.3844 360° North 452 520 39,000  Level New York Center
Sat 05:55:45 AM 35.9361 -72.3792 North 439 505 39,000  Level New York Center
Sat 05:56:45 AM 36.0592 -72.3819 359° North 439 505 39,000  Level New York Center
Sat 05:57:48 AM 36.1739 -72.3817 360° North 428 493 39,000  Level New York Center
Sat 05:58:45 AM 36.2969 -72.3792 North 428 493 39,000  Level New York Center
Sat 05:59:47 AM 36.4264 -72.3769 North 431 496 39,000  Level New York Center
Sat 06:05:21 AM 37.1539 -72.4564 340° North 432 497 39,000  Level FlightAware ADS-B (KWWD)
Sat 06:06:00 AM 37.2271 -72.4907 339° North 429 494 39,000  Level FlightAware ADS-B (KWWD)
Sat 06:06:50 AM 37.3191 -72.5341 339° North 417 480 39,000  Level FlightAware ADS-B (KWWD)
Sat 06:07:20 AM 37.3737 -72.5600 339° North 427 491 39,000  Level FlightAware ADS-B (KWWD)
Sat 06:08:01 AM 37.4501 -72.5961 339° North 426 490 39,000  Level FlightAware ADS-B (KWWD)
Sat 06:08:40 AM 37.5222 -72.6305 339° North 428 493 39,000  Level FlightAware ADS-B (KWWD)
Sat 06:09:10 AM 37.5765 -72.6564 339° North 427 491 39,000  Level FlightAware ADS-B (KWWD)
Sat 06:09:41 AM 37.6339 -72.6837 339° North 418 481 39,000  Level FlightAware ADS-B (KWWD)
Sat 06:10:21 AM 37.7068 -72.7184 339° North 414 476 39,000  Level FlightAware ADS-B (KWWD)
Sat 06:10:52 AM 37.7632 -72.7455 339° North 414 476 39,000  Level FlightAware ADS-B (KWWD)
Sat 06:11:32 AM 37.8373 -72.7809 339° North 413 475 39,000  Level FlightAware ADS-B (KWWD)
Sat 06:12:12 AM 37.9089 -72.8153 339° North 415 478 39,000  Level FlightAware ADS-B (KWWD)
Sat 06:12:52 AM 37.9815 -72.8500 339° North 412 474 39,000  Level FlightAware ADS-B (KWWD)
Sat 06:13:30 AM 38.0516 -72.8837 339° North 411 473 39,000  Level FlightAware ADS-B (KWWD)
Sat 06:14:02 AM 38.1095 -72.9117 339° North 412 474 39,000  Level FlightAware ADS-B (KWWD)
Sat 06:15:13 AM 38.2375 -72.9738 339° North 418 481 39,000  Level FlightAware ADS-B (KWWD)
Sat 06:16:00 AM 38.2738 -72.9914 339° North 418 481 39,000 -1,394 Level FlightAware ADS-B (KSNC)
Sat 06:16:52 AM 38.4155 -73.0605 339° North 418 481 36,700 -2,680 Descending FlightAware ADS-B (KWWD)
Sat 06:17:43 AM 38.5067 -73.1047 339° North 418 481 34,400 -3,099 Descending FlightAware ADS-B (KWWD)
Sat 06:18:23 AM 38.5797 -73.1406 339° North 431 496 32,000 -3,750 Descending FlightAware ADS-B (KWWD)
Sat 06:19:03 AM 38.6570 -73.1785 339° North 435 501 29,400 -3,259 Descending FlightAware ADS-B (KWWD)
Sat 06:19:44 AM 38.7329 -73.2159 339° North 433 498 27,600 -2,625 Descending FlightAware ADS-B (KWWD)
Sat 06:20:23 AM 38.8058 -73.2518 339° North 417 480 25,900 -2,571 Descending FlightAware ADS-B (KWWD)
Sat 06:20:54 AM 38.8608 -73.2791 339° North 417 480 24,600 -2,557 Descending FlightAware ADS-B (KWWD)
Sat 06:21:24 AM 38.9149 -73.3058 339° North 411 473 23,300 -2,475 Descending FlightAware ADS-B (KWWD)
Sat 06:22:14 AM 39.0027 -73.3494 339° North 399 459 21,300 -2,292 Descending FlightAware ADS-B (KWWD)
Sat 06:22:53 AM 39.0689 -73.3822 338° Northwest 380 437 19,900 -2,229 Descending FlightAware ADS-B (KWWD)
Sat 06:23:24 AM 39.1187 -73.4072 339° North 379 436 18,700 -2,519 Descending FlightAware ADS-B (KWWD)
Sat 06:24:14 AM 39.1997 -73.4475 339° North 367 422 16,500 -2,475 Descending FlightAware ADS-B (KWWD)
Sat 06:24:44 AM 39.2473 -73.4711 339° North 367 422 15,400 -1,800 Descending FlightAware ADS-B (KWWD)
Sat 06:25:44 AM 39.3407 -73.5182 338° Northwest 350 403 13,800 -970 Descending FlightAware ADS-B (KWWD)
Sat 06:26:23 AM 39.4015 -73.5485 338° Northwest 347 399 13,800 86 Level FlightAware ADS-B (KWWD)
Sat 06:26:54 AM 39.4478 -73.5718 338° Northwest 344 396 13,900  Climbing FlightAware ADS-B (KWWD)
Sat 06:27:24 AM 39.4922 -73.5942 338° Northwest 344 396 13,800 -800 Descending FlightAware ADS-B (KWWD)
Sat 06:27:54 AM 39.5382 -73.6174 339° North 349 402 13,100 -2,057 Descending FlightAware ADS-B (KWWD)
Sat 06:28:34 AM 39.5986 -73.6479 339° North 347 399 11,400 -1,859 Descending FlightAware ADS-B (KWWD)
Sat 06:29:05 AM 39.6429 -73.6702 338° Northwest 317 365 10,900 -930 Descending FlightAware ADS-B (KWWD)
Sat 06:29:45 AM 39.6963 -73.6973 339° North 295 339 10,300 -857 Descending FlightAware ADS-B (KWWD)
Sat 06:30:15 AM 39.7327 -73.7158 339° North 280 322 9,900 -1,200 Descending FlightAware ADS-B (KWWD)
Sat 06:30:45 AM 39.7690 -73.7343 339° North 277 319 9,100 -833 Descending FlightAware ADS-B (KWWD)
Sat 06:31:27 AM 39.7874 -73.7437 339° North 270 311 8,900 -200 Descending FlightAware ADS-B (KPHL)
Sat 06:31:45 AM 39.8394 -73.7700 339° North 277 319 8,900  Level FlightAware ADS-B (KWWD)
Sat 06:32:04 AM 39.8630 -73.7820 339° North 276 318 8,900  Level FlightAware ADS-B (KWWD)
Sat 06:32:32 AM 39.8642 -73.7827 339° North 276 318 8,900  Level FlightAware ADS-B (KPHL)
Sat 06:32:55 AM 39.9227 -73.8130 334° Northwest 272 313 8,900 -182 Level FlightAware ADS-B (KWWD)
Sat 06:33:05 AM 39.9331 -73.8228 316° Northwest 274 315 8,800  Descending FlightAware ADS-B (KWWD)
Sat 06:33:14 AM 39.9403 -73.8353 302° West 279 321 8,900 200 Climbing FlightAware ADS-B (KWWD)
Sat 06:33:35 AM 39.9526 -73.8669 294° West 275 316 8,900  Level FlightAware ADS-B (KWWD)
Sat 06:34:19 AM 39.9647 -73.8899 302° West 276 318 8,900  Level FlightAware ADS-B (KPHL)
Sat 06:34:36 AM 40.0165 -73.8961 29° Northeast 277 319 8,900  Level FlightAware ADS-B (KWWD)
Sat 06:34:46 AM 40.0280 -73.8852 39° Northeast 286 329 8,900  Level FlightAware ADS-B (KWWD)
Sat 06:35:05 AM 40.0471 -73.8646 41° Northeast 280 322 8,900 -120 Level FlightAware ADS-B (KWWD)
Sat 06:35:36 AM 40.0784 -73.8302 41° Northeast 279 321 8,800 -471 Descending FlightAware ADS-B (KWWD)
Sat 06:35:56 AM 40.0980 -73.8088 41° Northeast 277 319 8,500 -1,459 Descending FlightAware ADS-B (KWWD)
Sat 06:36:13 AM 40.1162 -73.7890 41° Northeast 281 323 7,900 -577 Descending FlightAware ADS-B (KWWD)
Sat 06:36:48 AM 40.1189 -73.7867 41° Northeast 271 312 8,000 -913 Climbing New York Center
Sat 06:37:45 AM 40.1833 -73.7167 40° Northeast 284 327 6,500 -1,462 Descending New York TRACON
Sat 06:38:47 AM 40.2450 -73.6669 32° Northeast 280 322 5,100 -1,131 Descending New York Center
Sat 06:39:47 AM 40.3064 -73.6261 27° Northeast 273 314 4,200 -966 Descending New York Center
Sat 06:40:45 AM 40.3833 -73.5667 30° Northeast 265 305 3,200 -679 Descending New York TRACON
Sat 06:41:33 AM 40.4333 -73.5333 27° Northeast 266 306 3,000 -176 Descending New York TRACON
Sat 06:42:27 AM 40.4833 -73.5333 360° North 234 269 2,900 -368 Descending New York TRACON
Sat 06:43:27 AM 40.5333 -73.5833 323° Northwest 202 232 2,300 -400 Descending New York TRACON
Sat 06:44:27 AM 40.5667 -73.6333 311° West 189 217 2,100 -300 Descending New York TRACON
Sat 06:45:27 AM 40.5833 -73.6833 294° West 158 182 1,700 -579 Descending New York TRACON
Sat 06:46:21 AM 40.6000 -73.7333 294° West 134 154 1,000 -778 Descending New York TRACON
Sat 06:48:00 AM 40.6333 -73.7667 329° Northwest  Level FlightAware Approximate
Sat 06:55:00 AM 40.6398 -73.7789 305° West  Level Estimated

Login

Don't have an account? Register now (free) for customized features, flight alerts, and more!